createdAt,value
2019-02-19T00:00:49.129Z,1006.91
2019-02-19T00:01:49.064Z,1006.90
2019-02-19T00:02:49.053Z,1006.93
2019-02-19T00:03:49.047Z,1006.93
2019-02-19T00:04:49.031Z,1006.94
2019-02-19T00:05:49.032Z,1006.92
2019-02-19T00:06:49.008Z,1006.96
2019-02-19T00:07:49.001Z,1006.95
2019-02-19T00:08:48.984Z,1006.93
2019-02-19T00:09:48.974Z,1006.94
2019-02-19T00:10:48.985Z,1006.96
2019-02-19T00:11:48.960Z,1006.95
2019-02-19T00:12:48.974Z,1006.95
2019-02-19T00:13:48.953Z,1006.94
2019-02-19T00:14:48.918Z,1006.93
2019-02-19T00:15:48.908Z,1006.93
2019-02-19T00:16:48.919Z,1006.95
2019-02-19T00:17:48.880Z,1006.95
2019-02-19T00:18:48.871Z,1006.95
2019-02-19T00:19:48.860Z,1006.91
2019-02-19T00:20:48.855Z,1006.94
2019-02-19T00:21:48.848Z,1006.89
2019-02-19T00:22:48.824Z,1006.96
2019-02-19T00:23:48.831Z,1006.91
2019-02-19T00:24:48.801Z,1006.85
2019-02-19T00:25:48.797Z,1006.92
2019-02-19T00:26:48.797Z,1006.91
2019-02-19T00:27:48.788Z,1006.90
2019-02-19T00:28:48.782Z,1006.90
2019-02-19T00:29:48.764Z,1006.91
2019-02-19T00:30:48.735Z,1006.88
2019-02-19T00:31:48.738Z,1006.85
2019-02-19T00:32:48.714Z,1006.86
2019-02-19T00:33:48.708Z,1006.84
2019-02-19T00:34:48.696Z,1006.83
2019-02-19T00:35:48.681Z,1006.84
2019-02-19T00:36:48.682Z,1006.85
2019-02-19T00:37:48.673Z,1006.80
2019-02-19T00:38:48.645Z,1006.84
2019-02-19T00:39:48.649Z,1006.85
2019-02-19T00:40:48.625Z,1006.81
2019-02-19T00:41:48.638Z,1006.85
2019-02-19T00:42:48.602Z,1006.84
2019-02-19T00:43:48.590Z,1006.85
2019-02-19T00:44:49.485Z,1006.90
2019-02-19T00:45:48.597Z,1006.87
2019-02-19T00:46:48.564Z,1006.85
2019-02-19T00:47:48.543Z,1006.92
2019-02-19T00:48:48.532Z,1006.91
2019-02-19T00:49:48.548Z,1006.92
2019-02-19T00:50:48.511Z,1006.93
2019-02-19T00:51:48.534Z,1006.87
2019-02-19T00:52:48.505Z,1006.89
2019-02-19T00:53:48.484Z,1006.87
2019-02-19T00:54:48.468Z,1006.92
2019-02-19T00:55:48.454Z,1006.93
2019-02-19T00:56:48.480Z,1006.89
2019-02-19T00:57:48.452Z,1006.96
2019-02-19T00:58:48.424Z,1006.97
2019-02-19T00:59:48.411Z,1006.94
2019-02-19T01:00:48.397Z,1006.94
2019-02-19T01:01:48.403Z,1006.93
2019-02-19T01:02:48.385Z,1006.95
2019-02-19T01:03:48.360Z,1006.93
2019-02-19T01:04:48.372Z,1006.92
2019-02-19T01:05:48.346Z,1006.93
2019-02-19T01:06:48.336Z,1006.93
2019-02-19T01:07:48.339Z,1006.89
2019-02-19T01:08:48.308Z,1006.93
2019-02-19T01:09:48.293Z,1006.89
2019-02-19T01:10:48.298Z,1006.91
2019-02-19T01:11:48.271Z,1006.95
2019-02-19T01:12:48.280Z,1006.91
2019-02-19T01:13:48.250Z,1006.90
2019-02-19T01:14:48.237Z,1006.90
2019-02-19T01:15:48.236Z,1006.84
2019-02-19T01:16:48.225Z,1006.91
2019-02-19T01:17:48.223Z,1006.89
2019-02-19T01:18:48.194Z,1006.87
2019-02-19T01:19:48.211Z,1006.86
2019-02-19T01:20:48.168Z,1006.84
2019-02-19T01:21:48.157Z,1006.86
2019-02-19T01:22:48.164Z,1006.90
2019-02-19T01:23:48.133Z,1006.87
2019-02-19T01:24:48.131Z,1006.92
2019-02-19T01:25:48.112Z,1006.95
2019-02-19T01:26:48.117Z,1006.92
2019-02-19T01:27:48.100Z,1006.89
2019-02-19T01:28:48.077Z,1006.95
2019-02-19T01:29:48.082Z,1006.91
2019-02-19T01:30:48.055Z,1006.96
2019-02-19T01:31:48.086Z,1006.89
2019-02-19T01:32:48.048Z,1006.91
2019-02-19T01:33:48.022Z,1006.91
2019-02-19T01:34:48.009Z,1006.88
2019-02-19T01:35:47.997Z,1006.90
2019-02-19T01:36:47.987Z,1006.92
2019-02-19T01:37:47.985Z,1006.91
2019-02-19T01:38:47.963Z,1006.86
2019-02-19T01:39:47.960Z,1006.90
2019-02-19T01:40:47.968Z,1006.87
2019-02-19T01:41:47.927Z,1006.87
2019-02-19T01:42:47.936Z,1006.91
2019-02-19T01:43:47.920Z,1006.93
2019-02-19T01:44:47.926Z,1006.90
2019-02-19T01:45:47.892Z,1006.91
2019-02-19T01:46:47.881Z,1006.91
2019-02-19T01:47:47.862Z,1006.92
2019-02-19T01:48:47.896Z,1006.90
2019-02-19T01:49:47.849Z,1006.89
2019-02-19T01:50:47.829Z,1006.87
2019-02-19T01:51:47.817Z,1006.85
2019-02-19T01:52:47.812Z,1006.89
2019-02-19T01:53:47.829Z,1006.85
2019-02-19T01:54:47.786Z,1006.83
2019-02-19T01:55:47.792Z,1006.88
2019-02-19T01:56:47.768Z,1006.83
2019-02-19T01:57:47.779Z,1006.84
2019-02-19T01:58:47.764Z,1006.84
2019-02-19T01:59:47.726Z,1006.84
2019-02-19T02:00:47.723Z,1006.89
2019-02-19T02:01:47.705Z,1006.89
2019-02-19T02:02:47.695Z,1006.90
2019-02-19T02:03:47.692Z,1006.88
2019-02-19T02:04:47.675Z,1006.86
2019-02-19T02:05:47.663Z,1006.83
2019-02-19T02:06:47.654Z,1006.83
2019-02-19T02:07:47.646Z,1006.78
2019-02-19T02:08:47.644Z,1006.78
2019-02-19T02:09:47.626Z,1006.77
2019-02-19T02:10:47.606Z,1006.78
2019-02-19T02:11:47.593Z,1006.77
2019-02-19T02:12:47.607Z,1006.75
2019-02-19T02:13:47.597Z,1006.74
2019-02-19T02:14:47.566Z,1006.74
2019-02-19T02:15:47.568Z,1006.75
2019-02-19T02:16:47.541Z,1006.72
2019-02-19T02:17:47.527Z,1006.74
2019-02-19T02:18:47.544Z,1006.75
2019-02-19T02:19:47.536Z,1006.73
2019-02-19T02:20:47.493Z,1006.73
2019-02-19T02:21:47.482Z,1006.72
2019-02-19T02:22:47.476Z,1006.70
2019-02-19T02:23:47.492Z,1006.71
2019-02-19T02:24:47.479Z,1006.70
2019-02-19T02:25:47.442Z,1006.69
2019-02-19T02:26:47.433Z,1006.69
2019-02-19T02:27:47.416Z,1006.67
2019-02-19T02:28:47.417Z,1006.72
2019-02-19T02:29:47.396Z,1006.69
2019-02-19T02:30:47.384Z,1006.73
2019-02-19T02:31:47.394Z,1006.66
2019-02-19T02:32:47.379Z,1006.69
2019-02-19T02:33:47.348Z,1006.73
2019-02-19T02:34:47.362Z,1006.71
2019-02-19T02:35:47.339Z,1006.65
2019-02-19T02:36:47.315Z,1006.64
2019-02-19T02:37:47.306Z,1006.69
2019-02-19T02:38:47.293Z,1006.65
2019-02-19T02:39:47.302Z,1006.66
2019-02-19T02:40:47.307Z,1006.68
2019-02-19T02:41:47.290Z,1006.67
2019-02-19T02:42:47.258Z,1006.68
2019-02-19T02:43:47.246Z,1006.65
2019-02-19T02:44:47.243Z,1006.72
2019-02-19T02:45:53.559Z,1006.73
2019-02-19T02:46:48.208Z,1006.71
2019-02-19T02:47:47.191Z,1006.73
2019-02-19T02:48:47.182Z,1006.69
2019-02-19T02:49:47.192Z,1006.75
2019-02-19T02:50:47.161Z,1006.70
2019-02-19T02:51:47.150Z,1006.73
2019-02-19T02:52:47.140Z,1006.70
2019-02-19T02:53:47.128Z,1006.71
2019-02-19T02:54:47.130Z,1006.73
2019-02-19T02:55:47.104Z,1006.70
2019-02-19T02:56:47.096Z,1006.73
2019-02-19T02:57:47.082Z,1006.71
2019-02-19T02:58:47.081Z,1006.70
2019-02-19T02:59:47.086Z,1006.69
2019-02-19T03:00:47.061Z,1006.67
2019-02-19T03:01:47.040Z,1006.65
2019-02-19T03:02:47.028Z,1006.66
2019-02-19T03:03:47.022Z,1006.68
2019-02-19T03:04:47.022Z,1006.64
2019-02-19T03:05:47.009Z,1006.68
2019-02-19T03:06:46.999Z,1006.71
2019-02-19T03:07:46.970Z,1006.66
2019-02-19T03:08:46.967Z,1006.65
2019-02-19T03:09:46.951Z,1006.66
2019-02-19T03:10:46.957Z,1006.65
2019-02-19T03:11:46.942Z,1006.63
2019-02-19T03:12:46.925Z,1006.63
2019-02-19T03:13:46.917Z,1006.60
2019-02-19T03:14:46.894Z,1006.59
2019-02-19T03:15:46.892Z,1006.64
2019-02-19T03:16:46.877Z,1006.65
2019-02-19T03:17:46.883Z,1006.63
2019-02-19T03:18:46.851Z,1006.60
2019-02-19T03:19:46.846Z,1006.61
2019-02-19T03:20:46.836Z,1006.63
2019-02-19T03:21:46.826Z,1006.64
2019-02-19T03:22:46.809Z,1006.67
2019-02-19T03:23:46.810Z,1006.65
2019-02-19T03:24:46.781Z,1006.66
2019-02-19T03:25:46.812Z,1006.70
2019-02-19T03:26:46.761Z,1006.68
2019-02-19T03:27:46.768Z,1006.69
2019-02-19T03:28:46.742Z,1006.68
2019-02-19T03:29:46.731Z,1006.66
2019-02-19T03:30:46.761Z,1006.66
2019-02-19T03:31:46.709Z,1006.64
2019-02-19T03:32:46.727Z,1006.61
2019-02-19T03:33:46.694Z,1006.66
2019-02-19T03:34:46.699Z,1006.66
2019-02-19T03:35:46.673Z,1006.64
2019-02-19T03:36:46.648Z,1006.64
2019-02-19T03:37:46.647Z,1006.65
2019-02-19T03:38:46.664Z,1006.69
2019-02-19T03:39:46.616Z,1006.66
2019-02-19T03:40:46.618Z,1006.69
2019-02-19T03:41:46.603Z,1006.69
2019-02-19T03:42:46.586Z,1006.73
2019-02-19T03:43:46.582Z,1006.73
2019-02-19T03:44:46.620Z,1006.77
2019-02-19T03:45:46.552Z,1006.76
2019-02-19T03:46:46.553Z,1006.75
2019-02-19T03:47:46.527Z,1006.72
2019-02-19T03:48:46.518Z,1006.75
2019-02-19T03:49:46.514Z,1006.75
2019-02-19T03:50:46.519Z,1006.74
2019-02-19T03:51:46.517Z,1006.73
2019-02-19T03:52:46.473Z,1006.72
2019-02-19T03:53:46.466Z,1006.74
2019-02-19T03:54:46.449Z,1006.68
2019-02-19T03:55:46.465Z,1006.71
2019-02-19T03:56:46.472Z,1006.74
2019-02-19T03:57:46.417Z,1006.80
2019-02-19T03:58:46.403Z,1006.79
2019-02-19T03:59:46.391Z,1006.79
2019-02-19T04:00:46.396Z,1006.75
2019-02-19T04:01:46.389Z,1006.79
2019-02-19T04:02:46.388Z,1006.81
2019-02-19T04:03:46.355Z,1006.86
2019-02-19T04:04:46.342Z,1006.83
2019-02-19T04:05:46.342Z,1006.83
2019-02-19T04:06:46.331Z,1006.84
2019-02-19T04:07:46.335Z,1006.86
2019-02-19T04:08:46.307Z,1006.83
2019-02-19T04:09:46.285Z,1006.82
2019-02-19T04:10:46.266Z,1006.81
2019-02-19T04:11:46.269Z,1006.84
2019-02-19T04:12:46.251Z,1006.82
2019-02-19T04:13:46.258Z,1006.81
2019-02-19T04:14:46.234Z,1006.76
2019-02-19T04:15:46.211Z,1006.79
2019-02-19T04:16:46.220Z,1006.79
2019-02-19T04:17:46.196Z,1006.81
2019-02-19T04:18:46.215Z,1006.78
2019-02-19T04:19:46.175Z,1006.86
2019-02-19T04:20:46.162Z,1006.84
2019-02-19T04:21:46.148Z,1006.79
2019-02-19T04:22:46.148Z,1006.82
2019-02-19T04:23:46.138Z,1006.85
2019-02-19T04:24:46.124Z,1006.87
2019-02-19T04:25:46.133Z,1006.86
2019-02-19T04:26:46.090Z,1006.84
2019-02-19T04:27:46.089Z,1006.83
2019-02-19T04:28:46.069Z,1006.80
2019-02-19T04:29:46.063Z,1006.83
2019-02-19T04:30:46.054Z,1006.84
2019-02-19T04:31:46.043Z,1006.87
2019-02-19T04:32:46.045Z,1006.87
2019-02-19T04:33:46.016Z,1006.86
2019-02-19T04:34:46.019Z,1006.86
2019-02-19T04:35:46.029Z,1006.87
2019-02-19T04:36:45.986Z,1006.89
2019-02-19T04:37:46.005Z,1006.83
2019-02-19T04:38:45.957Z,1006.84
2019-02-19T04:39:45.947Z,1006.91
2019-02-19T04:40:45.953Z,1006.86
2019-02-19T04:41:45.930Z,1006.94
2019-02-19T04:42:45.945Z,1006.91
2019-02-19T04:43:45.910Z,1006.82
2019-02-19T04:44:45.898Z,1006.87
2019-02-19T04:45:45.880Z,1006.84
2019-02-19T04:46:45.874Z,1006.89
2019-02-19T04:47:45.873Z,1006.86
2019-02-19T04:48:45.866Z,1006.85
2019-02-19T04:49:45.836Z,1006.84
2019-02-19T04:50:45.830Z,1006.86
2019-02-19T04:51:45.822Z,1006.86
2019-02-19T04:52:45.841Z,1006.90
2019-02-19T04:53:45.798Z,1006.87
2019-02-19T04:54:45.784Z,1006.92
2019-02-19T04:55:45.766Z,1006.92
2019-02-19T04:56:45.763Z,1006.96
2019-02-19T04:57:45.779Z,1006.91
2019-02-19T04:58:45.747Z,1007.00
2019-02-19T04:59:45.729Z,1006.97
2019-02-19T05:00:45.709Z,1006.99
2019-02-19T05:01:45.701Z,1006.98
2019-02-19T05:02:45.688Z,1007.04
2019-02-19T05:03:45.690Z,1007.01
2019-02-19T05:04:45.675Z,1006.98
2019-02-19T05:05:45.653Z,1006.95
2019-02-19T05:06:45.643Z,1006.98
2019-02-19T05:07:45.640Z,1006.99
2019-02-19T05:08:45.638Z,1007.02
2019-02-19T05:09:45.612Z,1006.99
2019-02-19T05:10:45.607Z,1006.95
2019-02-19T05:11:45.591Z,1006.97
2019-02-19T05:12:45.580Z,1006.99
2019-02-19T05:13:45.576Z,1007.00
2019-02-19T05:14:45.563Z,1007.00
2019-02-19T05:15:45.558Z,1006.99
2019-02-19T05:16:45.583Z,1007.04
2019-02-19T05:17:45.522Z,1007.05
2019-02-19T05:18:45.541Z,1007.06
2019-02-19T05:19:45.499Z,1007.03
2019-02-19T05:20:45.507Z,1007.01
2019-02-19T05:21:45.500Z,1007.02
2019-02-19T05:22:45.472Z,1007.05
2019-02-19T05:23:45.486Z,1006.98
2019-02-19T05:24:45.462Z,1006.97
2019-02-19T05:25:45.431Z,1006.96
2019-02-19T05:26:45.507Z,1006.93
2019-02-19T05:27:45.435Z,1006.95
2019-02-19T05:28:45.413Z,1006.93
2019-02-19T05:29:45.385Z,1006.93
2019-02-19T05:30:45.375Z,1006.91
2019-02-19T05:31:45.364Z,1006.89
2019-02-19T05:32:45.374Z,1006.90
2019-02-19T05:33:45.377Z,1006.88
2019-02-19T05:34:45.364Z,1006.92
2019-02-19T05:35:45.334Z,1006.95
2019-02-19T05:36:45.318Z,1006.96
2019-02-19T05:37:45.309Z,1006.95
2019-02-19T05:38:45.308Z,1007.00
2019-02-19T05:39:45.278Z,1006.97
2019-02-19T05:40:45.261Z,1007.08
2019-02-19T05:41:45.292Z,1007.02
2019-02-19T05:42:45.259Z,1007.00
2019-02-19T05:43:45.243Z,1007.06
2019-02-19T05:44:45.251Z,1007.09
2019-02-19T05:45:45.215Z,1007.10
2019-02-19T05:46:49.926Z,1007.06
2019-02-19T05:47:46.202Z,1007.02
2019-02-19T05:48:45.193Z,1007.03
2019-02-19T05:49:45.194Z,1007.02
2019-02-19T05:50:45.192Z,1007.06
2019-02-19T05:51:45.154Z,1007.03
2019-02-19T05:52:45.143Z,1007.00
2019-02-19T05:53:45.145Z,1007.08
2019-02-19T05:54:45.161Z,1006.97
2019-02-19T05:55:45.121Z,1007.07
2019-02-19T05:56:45.090Z,1007.06
2019-02-19T05:57:45.086Z,1007.02
2019-02-19T05:58:45.069Z,1007.08
2019-02-19T05:59:45.077Z,1007.08
2019-02-19T06:00:45.049Z,1007.14
2019-02-19T06:01:45.063Z,1007.18
2019-02-19T06:02:45.023Z,1007.23
2019-02-19T06:03:45.014Z,1007.22
2019-02-19T06:04:45.025Z,1007.19
2019-02-19T06:05:44.988Z,1007.27
2019-02-19T06:06:45.027Z,1007.23
2019-02-19T06:07:44.964Z,1007.26
2019-02-19T06:08:44.955Z,1007.23
2019-02-19T06:09:44.969Z,1007.22
2019-02-19T06:10:44.943Z,1007.26
2019-02-19T06:11:44.917Z,1007.24
2019-02-19T06:12:44.917Z,1007.23
2019-02-19T06:13:44.899Z,1007.25
2019-02-19T06:14:44.897Z,1007.28
2019-02-19T06:15:44.884Z,1007.26
2019-02-19T06:16:44.876Z,1007.28
2019-02-19T06:17:44.862Z,1007.30
2019-02-19T06:18:44.860Z,1007.29
2019-02-19T06:19:44.863Z,1007.30
2019-02-19T06:20:44.835Z,1007.25
2019-02-19T06:21:44.805Z,1007.33
2019-02-19T06:22:44.809Z,1007.30
2019-02-19T06:23:44.789Z,1007.34
2019-02-19T06:24:44.817Z,1007.32
2019-02-19T06:25:44.771Z,1007.31
2019-02-19T06:26:44.789Z,1007.37
2019-02-19T06:27:44.748Z,1007.39
2019-02-19T06:28:44.748Z,1007.35
2019-02-19T06:29:44.770Z,1007.31
2019-02-19T06:30:44.729Z,1007.30
2019-02-19T06:31:44.701Z,1007.33
2019-02-19T06:32:44.686Z,1007.33
2019-02-19T06:33:44.697Z,1007.34
2019-02-19T06:34:44.674Z,1007.35
2019-02-19T06:35:44.674Z,1007.35
2019-02-19T06:36:44.648Z,1007.37
2019-02-19T06:37:44.638Z,1007.42
2019-02-19T06:38:44.613Z,1007.48
2019-02-19T06:39:44.606Z,1007.47
2019-02-19T06:40:44.613Z,1007.43
2019-02-19T06:41:44.592Z,1007.50
2019-02-19T06:42:44.598Z,1007.47
2019-02-19T06:43:44.557Z,1007.51
2019-02-19T06:44:44.565Z,1007.52
2019-02-19T06:45:44.553Z,1007.51
2019-02-19T06:46:44.543Z,1007.49
2019-02-19T06:47:44.515Z,1007.50
2019-02-19T06:48:44.508Z,1007.45
2019-02-19T06:49:44.493Z,1007.44
2019-02-19T06:50:44.494Z,1007.48
2019-02-19T06:51:44.488Z,1007.46
2019-02-19T06:52:44.458Z,1007.41
2019-02-19T06:53:44.447Z,1007.43
2019-02-19T06:54:44.442Z,1007.45
2019-02-19T06:55:45.039Z,1007.45
2019-02-19T06:56:44.416Z,1007.43
2019-02-19T06:57:44.414Z,1007.40
2019-02-19T06:58:44.390Z,1007.40
2019-02-19T06:59:44.398Z,1007.46
2019-02-19T07:00:44.382Z,1007.42
2019-02-19T07:01:44.362Z,1007.43
2019-02-19T07:02:44.401Z,1007.41
2019-02-19T07:03:44.332Z,1007.37
2019-02-19T07:04:44.334Z,1007.34
2019-02-19T07:05:44.344Z,1007.35
2019-02-19T07:06:44.298Z,1007.36
2019-02-19T07:07:44.291Z,1007.37
2019-02-19T07:08:44.292Z,1007.41
2019-02-19T07:09:44.264Z,1007.41
2019-02-19T07:10:44.266Z,1007.45
2019-02-19T07:11:44.245Z,1007.54
2019-02-19T07:12:44.251Z,1007.68
2019-02-19T07:13:44.248Z,1007.82
2019-02-19T07:14:44.207Z,1007.86
2019-02-19T07:15:44.195Z,1007.85
2019-02-19T07:16:44.199Z,1007.96
2019-02-19T07:17:44.188Z,1007.88
2019-02-19T07:18:44.178Z,1007.93
2019-02-19T07:19:44.149Z,1007.89
2019-02-19T07:20:44.140Z,1007.92
2019-02-19T07:21:44.138Z,1007.89
2019-02-19T07:22:44.118Z,1007.94
2019-02-19T07:23:44.113Z,1007.96
2019-02-19T07:24:44.094Z,1007.96
2019-02-19T07:25:44.085Z,1007.93
2019-02-19T07:26:44.083Z,1007.94
2019-02-19T07:27:44.063Z,1007.88
2019-02-19T07:28:44.056Z,1007.90
2019-02-19T07:29:44.041Z,1007.92
2019-02-19T07:30:44.051Z,1007.94
2019-02-19T07:31:44.038Z,1007.92
2019-02-19T07:32:44.006Z,1007.93
2019-02-19T07:33:43.992Z,1007.92
2019-02-19T07:34:43.990Z,1007.93
2019-02-19T07:35:43.973Z,1007.97
2019-02-19T07:36:43.972Z,1007.99
2019-02-19T07:37:43.949Z,1007.97
2019-02-19T07:38:43.939Z,1008.00
2019-02-19T07:39:43.931Z,1008.00
2019-02-19T07:40:43.914Z,1008.00
2019-02-19T07:41:43.944Z,1008.09
2019-02-19T07:42:43.892Z,1008.07
2019-02-19T07:43:43.879Z,1008.13
2019-02-19T07:44:43.882Z,1008.18
2019-02-19T07:45:43.856Z,1008.20
2019-02-19T07:46:43.857Z,1008.22
2019-02-19T07:47:43.836Z,1008.22
2019-02-19T07:48:43.860Z,1008.22
2019-02-19T07:49:43.822Z,1008.24
2019-02-19T07:50:43.809Z,1008.26
2019-02-19T07:51:43.819Z,1008.25
2019-02-19T07:52:43.778Z,1008.19
2019-02-19T07:53:43.767Z,1008.20
2019-02-19T07:54:43.755Z,1008.22
2019-02-19T07:55:43.743Z,1008.24
2019-02-19T07:56:43.742Z,1008.25
2019-02-19T07:57:43.723Z,1008.27
2019-02-19T07:58:43.711Z,1008.27
2019-02-19T07:59:43.697Z,1008.33
2019-02-19T08:00:43.686Z,1008.36
2019-02-19T08:01:43.707Z,1008.33
2019-02-19T08:02:43.668Z,1008.32
2019-02-19T08:03:43.652Z,1008.33
2019-02-19T08:04:43.641Z,1008.34
2019-02-19T08:05:43.639Z,1008.35
2019-02-19T08:06:43.694Z,1008.37
2019-02-19T08:07:43.613Z,1008.36
2019-02-19T08:08:43.639Z,1008.37
2019-02-19T08:09:43.618Z,1008.35
2019-02-19T08:10:43.576Z,1008.39
2019-02-19T08:11:43.589Z,1008.34
2019-02-19T08:12:43.556Z,1008.35
2019-02-19T08:13:43.566Z,1008.40
2019-02-19T08:14:43.542Z,1008.49
2019-02-19T08:15:43.526Z,1008.49
2019-02-19T08:16:43.795Z,1008.52
2019-02-19T08:17:43.514Z,1008.55
2019-02-19T08:18:43.493Z,1008.59
2019-02-19T08:19:43.486Z,1008.63
2019-02-19T08:20:43.484Z,1008.67
2019-02-19T08:21:43.452Z,1008.65
2019-02-19T08:22:43.506Z,1008.63
2019-02-19T08:23:43.429Z,1008.60
2019-02-19T08:24:43.429Z,1008.73
2019-02-19T08:25:43.424Z,1008.67
2019-02-19T08:26:43.392Z,1008.72
2019-02-19T08:27:43.411Z,1008.72
2019-02-19T08:28:43.385Z,1008.73
2019-02-19T08:29:43.384Z,1008.75
2019-02-19T08:30:43.355Z,1008.73
2019-02-19T08:31:43.357Z,1008.70
2019-02-19T08:32:43.349Z,1008.75
2019-02-19T08:33:43.314Z,1008.72
2019-02-19T08:34:43.307Z,1008.74
2019-02-19T08:35:43.293Z,1008.74
2019-02-19T08:36:43.307Z,1008.80
2019-02-19T08:37:43.310Z,1008.76
2019-02-19T08:38:43.263Z,1008.79
2019-02-19T08:39:43.267Z,1008.82
2019-02-19T08:40:43.239Z,1008.85
2019-02-19T08:41:43.235Z,1008.85
2019-02-19T08:42:43.248Z,1008.89
2019-02-19T08:43:43.203Z,1008.92
2019-02-19T08:44:43.191Z,1008.93
2019-02-19T08:45:43.215Z,1008.93
2019-02-19T08:46:43.181Z,1008.94
2019-02-19T08:47:43.182Z,1009.01
2019-02-19T08:48:43.181Z,1008.96
2019-02-19T08:49:43.160Z,1009.01
2019-02-19T08:50:43.124Z,1008.97
2019-02-19T08:51:43.114Z,1008.94
2019-02-19T08:52:43.117Z,1008.92
2019-02-19T08:53:43.093Z,1008.93
2019-02-19T08:54:43.093Z,1008.96
2019-02-19T08:55:43.066Z,1008.98
2019-02-19T08:56:43.063Z,1009.00
2019-02-19T08:57:43.069Z,1008.96
2019-02-19T08:58:43.062Z,1008.98
2019-02-19T08:59:43.028Z,1009.03
2019-02-19T09:00:43.014Z,1009.00
2019-02-19T09:01:43.003Z,1008.98
2019-02-19T09:02:43.526Z,1008.99
2019-02-19T09:03:42.992Z,1009.04
2019-02-19T09:04:42.985Z,1008.96
2019-02-19T09:05:42.954Z,1008.97
2019-02-19T09:06:42.944Z,1009.00
2019-02-19T09:07:42.981Z,1009.06
2019-02-19T09:08:42.922Z,1009.11
2019-02-19T09:09:42.991Z,1009.19
2019-02-19T09:10:42.924Z,1009.20
2019-02-19T09:11:42.907Z,1009.23
2019-02-19T09:12:42.876Z,1009.20
2019-02-19T09:13:42.874Z,1009.20
2019-02-19T09:14:42.889Z,1009.26
2019-02-19T09:15:42.885Z,1009.25
2019-02-19T09:16:42.838Z,1009.22
2019-02-19T09:17:51.359Z,1009.21
2019-02-19T09:18:43.830Z,1009.24
2019-02-19T09:19:42.796Z,1009.24
2019-02-19T09:20:42.801Z,1009.21
2019-02-19T09:21:42.798Z,1009.17
2019-02-19T09:22:42.914Z,1009.19
2019-02-19T09:23:42.770Z,1009.19
2019-02-19T09:24:42.749Z,1009.23
2019-02-19T09:25:42.741Z,1009.25
2019-02-19T09:26:42.718Z,1009.24
2019-02-19T09:27:43.344Z,1009.23
2019-02-19T09:28:42.715Z,1009.22
2019-02-19T09:29:42.683Z,1009.14
2019-02-19T09:30:42.681Z,1009.19
2019-02-19T09:31:42.671Z,1009.17
2019-02-19T09:32:42.668Z,1009.21
2019-02-19T09:33:42.662Z,1009.26
2019-02-19T09:34:42.628Z,1009.27
2019-02-19T09:35:42.615Z,1009.34
2019-02-19T09:36:42.604Z,1009.34
2019-02-19T09:37:42.596Z,1009.35
2019-02-19T09:38:42.611Z,1009.33
2019-02-19T09:39:42.571Z,1009.28
2019-02-19T09:40:42.599Z,1009.25
2019-02-19T09:41:42.549Z,1009.26
2019-02-19T09:42:42.542Z,1009.32
2019-02-19T09:43:42.537Z,1009.31
2019-02-19T09:44:42.519Z,1009.34
2019-02-19T09:45:42.510Z,1009.36
2019-02-19T09:46:42.496Z,1009.38
2019-02-19T09:47:42.481Z,1009.43
2019-02-19T09:48:42.531Z,1009.36
2019-02-19T09:49:42.493Z,1009.36
2019-02-19T09:50:42.447Z,1009.40
2019-02-19T09:51:42.438Z,1009.36
2019-02-19T09:52:42.425Z,1009.37
2019-02-19T09:53:42.443Z,1009.35
2019-02-19T09:54:42.425Z,1009.35
2019-02-19T09:55:43.835Z,1009.34
2019-02-19T09:56:42.386Z,1009.34
2019-02-19T09:57:42.407Z,1009.38
2019-02-19T09:58:42.368Z,1009.38
2019-02-19T09:59:42.360Z,1009.41
2019-02-19T10:00:42.343Z,1009.39
2019-02-19T10:01:42.327Z,1009.40
2019-02-19T10:02:43.811Z,1009.38
2019-02-19T10:03:42.342Z,1009.38
2019-02-19T10:04:42.292Z,1009.43
2019-02-19T10:05:42.279Z,1009.40
2019-02-19T10:06:42.266Z,1009.42
2019-02-19T10:07:42.262Z,1009.44
2019-02-19T10:08:42.251Z,1009.41
2019-02-19T10:09:42.247Z,1009.42
2019-02-19T10:10:42.221Z,1009.48
2019-02-19T10:11:42.212Z,1009.49
2019-02-19T10:12:42.204Z,1009.47
2019-02-19T10:13:42.191Z,1009.50
2019-02-19T10:14:42.201Z,1009.51
2019-02-19T10:15:42.163Z,1009.54
2019-02-19T10:16:42.295Z,1009.48
2019-02-19T10:17:42.142Z,1009.56
2019-02-19T10:18:42.132Z,1009.54
2019-02-19T10:19:42.136Z,1009.60
2019-02-19T10:20:42.110Z,1009.58
2019-02-19T10:21:42.133Z,1009.57
2019-02-19T10:22:42.090Z,1009.54
2019-02-19T10:23:42.088Z,1009.57
2019-02-19T10:24:42.105Z,1009.57
2019-02-19T10:25:42.054Z,1009.65
2019-02-19T10:26:42.040Z,1009.66
2019-02-19T10:27:42.038Z,1009.64
2019-02-19T10:28:42.018Z,1009.67
2019-02-19T10:29:42.019Z,1009.68
2019-02-19T10:30:42.004Z,1009.73
2019-02-19T10:31:42.006Z,1009.71
2019-02-19T10:32:41.972Z,1009.72
2019-02-19T10:33:41.965Z,1009.77
2019-02-19T10:34:41.968Z,1009.74
2019-02-19T10:35:41.940Z,1009.70
2019-02-19T10:36:41.936Z,1009.72
2019-02-19T10:37:41.919Z,1009.74
2019-02-19T10:38:41.919Z,1009.75
2019-02-19T10:39:41.908Z,1009.74
2019-02-19T10:40:41.886Z,1009.74
2019-02-19T10:41:41.873Z,1009.76
2019-02-19T10:42:41.904Z,1009.78
2019-02-19T10:43:41.849Z,1009.78
2019-02-19T10:44:41.879Z,1009.86
2019-02-19T10:45:41.830Z,1009.85
2019-02-19T10:46:41.816Z,1009.83
2019-02-19T10:47:41.811Z,1009.87
2019-02-19T10:48:43.686Z,1009.85
2019-02-19T10:49:41.793Z,1009.85
2019-02-19T10:50:41.799Z,1009.85
2019-02-19T10:51:41.760Z,1009.89
2019-02-19T10:52:41.762Z,1009.87
2019-02-19T10:53:41.744Z,1009.85
2019-02-19T10:54:41.724Z,1009.86
2019-02-19T10:55:41.732Z,1009.88
2019-02-19T10:56:41.703Z,1009.88
2019-02-19T10:57:41.696Z,1009.90
2019-02-19T10:58:41.678Z,1009.90
2019-02-19T10:59:41.667Z,1009.89
2019-02-19T11:00:41.675Z,1009.91
2019-02-19T11:01:41.663Z,1009.91
2019-02-19T11:02:41.641Z,1009.85
2019-02-19T11:03:41.638Z,1009.88
2019-02-19T11:04:41.611Z,1009.86
2019-02-19T11:05:41.611Z,1009.89
2019-02-19T11:06:41.596Z,1009.88
2019-02-19T11:07:41.626Z,1009.88
2019-02-19T11:08:41.586Z,1009.83
2019-02-19T11:09:41.598Z,1009.81
2019-02-19T11:10:41.557Z,1009.81
2019-02-19T11:11:41.534Z,1009.84
2019-02-19T11:12:41.522Z,1009.83
2019-02-19T11:13:41.511Z,1009.79
2019-02-19T11:14:41.499Z,1009.80
2019-02-19T11:15:41.498Z,1009.81
2019-02-19T11:16:41.487Z,1009.83
2019-02-19T11:17:41.471Z,1009.81
2019-02-19T11:18:41.476Z,1009.84
2019-02-19T11:19:41.445Z,1009.77
2019-02-19T11:20:41.447Z,1009.76
2019-02-19T11:21:41.437Z,1009.75
2019-02-19T11:22:41.409Z,1009.74
2019-02-19T11:23:41.399Z,1009.72
2019-02-19T11:24:41.405Z,1009.69
2019-02-19T11:25:41.390Z,1009.71
2019-02-19T11:26:41.363Z,1009.72
2019-02-19T11:27:41.353Z,1009.73
2019-02-19T11:28:41.341Z,1009.71
2019-02-19T11:29:41.346Z,1009.73
2019-02-19T11:30:41.352Z,1009.75
2019-02-19T11:31:41.308Z,1009.79
2019-02-19T11:32:41.296Z,1009.77
2019-02-19T11:33:41.305Z,1009.74
2019-02-19T11:34:41.279Z,1009.73
2019-02-19T11:35:41.274Z,1009.76
2019-02-19T11:36:41.262Z,1009.76
2019-02-19T11:37:41.248Z,1009.68
2019-02-19T11:38:41.235Z,1009.77
2019-02-19T11:39:41.222Z,1009.78
2019-02-19T11:40:41.218Z,1009.74
2019-02-19T11:41:41.198Z,1009.69
2019-02-19T11:42:41.193Z,1009.71
2019-02-19T11:43:41.174Z,1009.68
2019-02-19T11:44:41.171Z,1009.68
2019-02-19T11:45:41.166Z,1009.67
2019-02-19T11:46:41.152Z,1009.69
2019-02-19T11:47:41.144Z,1009.73
2019-02-19T11:48:41.117Z,1009.69
2019-02-19T11:49:41.106Z,1009.71
2019-02-19T11:50:41.108Z,1009.73
2019-02-19T11:51:41.086Z,1009.72
2019-02-19T11:52:41.079Z,1009.72
2019-02-19T11:53:41.071Z,1009.71
2019-02-19T11:54:41.051Z,1009.69
2019-02-19T11:55:41.050Z,1009.70
2019-02-19T11:56:41.034Z,1009.64
2019-02-19T11:57:41.024Z,1009.65
2019-02-19T11:58:41.006Z,1009.68
2019-02-19T11:59:40.998Z,1009.66
2019-02-19T12:00:41.055Z,1009.68
2019-02-19T12:01:40.971Z,1009.62
2019-02-19T12:02:40.963Z,1009.66
2019-02-19T12:03:40.950Z,1009.61
2019-02-19T12:04:40.945Z,1009.67
2019-02-19T12:05:40.925Z,1009.64